PROFILE

 METAR AND TAF INFORMATION
ADDS - METARS form results

(0344 UTC 25 April 2019)
http://aviationweather.gov/metar/data/
 
EGJJ 250320Z AUTO 18016KT 9999 NCD 10/08 Q0993
EGJJ 250250Z AUTO 17019KT 9999 NCD 10/08 Q0993
TAF EGJJ 250202Z 2503/2512 17018KT 9999 SCT020 PROB40 TEMPO 2503/2512 8000 SHRA BKN015CB PROB30 TEMPO 2509/2512 15020G30KT 3000 TSRA 

 AIRPORT MAP

 RUNWAY INFORMATION
Runway 09 Runway length 5597 ft Runway width 151 ft
Runway elevation 270 ft Runway displaced threshold 200 ft Runway heading 83
Runway 27 Runway length 5597 ft Runway width 151 ft
Runway elevation 271 ft Runway displaced threshold 299 ft Runway heading 263

 AIRPORT FREQUENCIES
Type APP Name APP Frequency 120.3 MHZ
Type ATIS Name INFO Frequency 112.2 MHZ
Type GND Name GND Frequency 121.9 MHZ
Type RDR Name RDR Frequency 118.55 MHZ
Type TWR Name TWR Frequency 119.45 MHZ

 AIRPORT NEAR NAVIGATION AIDS
Type VOR-DME Name Jersey Frequency 112200 KHZ